Terminal Aerodrome Forecast
Issued by NWS Bismarck, ND

Home | Current Version | Previous Version | Text Only | Print | Product List | Glossary On
Versions: 1 2 3 4 5 6 7 8 9 10 11 12 13 14 15 16 17 18 19 20 21 22 23 24 25 26 27 28
000
FTUS43 KBIS 280150 AAB
TAFBIS
TAF AMD
KBIS 280150Z 2802/2824 07007KT P6SM SCT040 BKN100
     FM280500 06006KT P6SM VCSH BKN060
     FM280800 07004KT P6SM BKN050=

USA.gov is the U.S. government's official web portal to all federal, state and local government web resources and services.